createdAt,value
2018-12-01T00:01:27.123Z,6.62
2018-12-01T00:04:00.047Z,6.57
2018-12-01T00:06:32.276Z,6.55
2018-12-01T00:09:04.699Z,6.58
2018-12-01T00:11:36.490Z,6.56
2018-12-01T00:14:08.167Z,6.55
2018-12-01T00:16:39.811Z,6.52
2018-12-01T00:19:12.776Z,6.47
2018-12-01T00:21:44.707Z,6.41
2018-12-01T00:24:16.747Z,6.39
2018-12-01T00:26:48.564Z,6.35
2018-12-01T00:29:20.442Z,6.31
2018-12-01T00:31:52.381Z,6.28
2018-12-01T00:34:23.886Z,6.25
2018-12-01T00:36:55.739Z,6.20
2018-12-01T00:39:27.541Z,6.16
2018-12-01T00:41:59.191Z,6.14
2018-12-01T00:44:31.343Z,6.06
2018-12-01T00:47:02.810Z,6.05
2018-12-01T00:49:34.644Z,6.03
2018-12-01T00:52:06.575Z,6.02
2018-12-01T00:54:38.011Z,5.95
2018-12-01T00:57:09.411Z,5.90
2018-12-01T00:59:41.210Z,5.88
2018-12-01T01:02:29.843Z,5.84
2018-12-01T01:05:02.031Z,5.79
2018-12-01T01:07:34.850Z,5.78
2018-12-01T01:10:10.542Z,5.73
2018-12-01T01:12:42.310Z,5.69
2018-12-01T01:15:14.233Z,5.68
2018-12-01T01:17:45.568Z,5.66
2018-12-01T01:20:24.419Z,5.62
2018-12-01T01:22:55.834Z,5.59
2018-12-01T01:25:27.385Z,5.56
2018-12-01T01:27:58.895Z,5.60
2018-12-01T01:30:30.612Z,5.60
2018-12-01T01:33:27.784Z,5.56
2018-12-01T01:35:59.081Z,5.53
2018-12-01T01:38:33.644Z,5.41
2018-12-01T01:41:08.307Z,5.35
2018-12-01T01:43:40.822Z,5.35
2018-12-01T01:46:12.123Z,5.29
2018-12-01T01:48:43.648Z,5.25
2018-12-01T01:51:15.184Z,5.21
2018-12-01T01:53:47.276Z,5.17
2018-12-01T01:56:19.187Z,5.19
2018-12-01T01:58:51.123Z,5.22
2018-12-01T02:01:22.965Z,5.14
2018-12-01T02:03:56.057Z,5.08
2018-12-01T02:06:28.254Z,5.07
2018-12-01T02:08:59.569Z,5.01
2018-12-01T02:11:32.756Z,4.92
2018-12-01T02:14:04.576Z,4.86
2018-12-01T02:16:36.318Z,4.88
2018-12-01T02:19:07.687Z,4.87
2018-12-01T02:21:39.790Z,4.88
2018-12-01T02:24:11.241Z,4.87
2018-12-01T02:26:43.011Z,4.86
2018-12-01T02:29:14.749Z,4.90
2018-12-01T02:31:46.420Z,4.97
2018-12-01T02:34:19.625Z,5.06
2018-12-01T02:36:51.414Z,5.14
2018-12-01T02:39:23.107Z,5.17
2018-12-01T02:41:55.294Z,5.08
2018-12-01T02:45:23.620Z,4.99
2018-12-01T02:47:55.255Z,4.92
2018-12-01T02:50:29.959Z,4.86
2018-12-01T02:53:02.624Z,4.83
2018-12-01T02:55:34.377Z,4.80
2018-12-01T02:58:06.459Z,4.78
2018-12-01T03:00:38.770Z,4.77
2018-12-01T03:03:10.116Z,4.80
2018-12-01T03:05:41.593Z,4.76
2018-12-01T03:08:13.323Z,4.70
2018-12-01T03:10:46.552Z,4.67
2018-12-01T03:13:18.442Z,4.64
2018-12-01T03:15:49.863Z,4.69
2018-12-01T03:18:21.201Z,4.67
2018-12-01T03:20:53.438Z,4.62
2018-12-01T03:23:25.231Z,4.69
2018-12-01T03:25:58.835Z,4.79
2018-12-01T03:28:31.312Z,4.81
2018-12-01T03:31:03.749Z,4.82
2018-12-01T03:33:36.537Z,4.76
2018-12-01T03:36:07.898Z,4.71
2018-12-01T03:38:40.453Z,4.76
2018-12-01T03:41:11.836Z,4.76
2018-12-01T03:43:43.957Z,4.85
2018-12-01T03:46:16.123Z,4.77
2018-12-01T03:48:47.905Z,4.83
2018-12-01T03:51:19.316Z,4.87
2018-12-01T03:53:51.616Z,4.92
2018-12-01T03:56:25.189Z,4.88
2018-12-01T03:58:56.960Z,4.85
2018-12-01T04:01:28.827Z,4.80
2018-12-01T04:04:00.394Z,4.73
2018-12-01T04:06:31.802Z,4.65
2018-12-01T04:09:22.192Z,4.61
2018-12-01T04:11:54.292Z,4.73
2018-12-01T04:14:39.449Z,4.68
2018-12-01T04:17:11.803Z,4.73
2018-12-01T04:19:43.560Z,4.86
2018-12-01T04:22:14.958Z,5.01
2018-12-01T04:24:46.597Z,5.05
2018-12-01T04:27:19.399Z,5.15
2018-12-01T04:29:51.360Z,5.24
2018-12-01T04:32:24.379Z,5.29
2018-12-01T04:34:57.793Z,5.39
2018-12-01T04:37:29.915Z,5.48
2018-12-01T04:40:01.307Z,5.52
2018-12-01T04:42:34.613Z,5.56
2018-12-01T04:45:07.516Z,5.61
2018-12-01T04:47:40.250Z,5.65
2018-12-01T04:50:12.861Z,5.68
2018-12-01T04:52:44.726Z,5.76
2018-12-01T04:55:17.231Z,5.77
2018-12-01T04:57:48.609Z,5.84
2018-12-01T05:00:23.267Z,5.91
2018-12-01T05:02:57.236Z,5.93
2018-12-01T05:05:28.599Z,5.97
2018-12-01T05:08:00.616Z,6.00
2018-12-01T05:10:32.765Z,6.06
2018-12-01T05:13:04.062Z,6.07
2018-12-01T05:15:35.477Z,6.10
2018-12-01T05:18:07.299Z,6.13
2018-12-01T05:20:38.732Z,6.19
2018-12-01T05:23:10.843Z,6.22
2018-12-01T05:25:43.423Z,6.26
2018-12-01T05:28:14.730Z,6.28
2018-12-01T05:30:46.088Z,6.34
2018-12-01T05:33:17.971Z,6.35
2018-12-01T05:35:49.829Z,6.39
2018-12-01T05:38:21.444Z,6.40
2018-12-01T05:40:53.499Z,6.39
2018-12-01T05:43:25.379Z,6.40
2018-12-01T05:45:56.716Z,6.39
2018-12-01T05:48:28.738Z,6.38
2018-12-01T05:51:04.137Z,6.38
2018-12-01T05:53:35.501Z,6.38
2018-12-01T05:56:07.664Z,6.39
2018-12-01T05:58:39.817Z,6.41
2018-12-01T06:01:11.316Z,6.41
2018-12-01T06:03:43.498Z,6.40
2018-12-01T06:06:15.175Z,6.44
2018-12-01T06:08:47.048Z,6.44
2018-12-01T06:11:19.346Z,6.44
2018-12-01T06:13:51.191Z,6.50
2018-12-01T06:16:23.712Z,6.49
2018-12-01T06:18:55.280Z,6.51
2018-12-01T06:21:27.382Z,6.50
2018-12-01T06:24:01.719Z,6.52
2018-12-01T06:26:33.352Z,6.56
2018-12-01T06:29:05.980Z,6.55
2018-12-01T06:31:37.363Z,6.55
2018-12-01T06:34:08.570Z,6.56
2018-12-01T06:36:39.870Z,6.60
2018-12-01T06:39:13.090Z,6.65
2018-12-01T06:41:45.134Z,6.65
2018-12-01T06:44:17.020Z,6.66
2018-12-01T06:46:48.409Z,6.69
2018-12-01T06:49:19.820Z,6.72
2018-12-01T06:51:52.194Z,6.71
2018-12-01T06:54:25.000Z,6.72
2018-12-01T06:56:57.922Z,6.75
2018-12-01T06:59:29.295Z,6.76
2018-12-01T07:02:01.099Z,6.79
2018-12-01T07:04:34.087Z,6.84
2018-12-01T07:07:06.418Z,6.86
2018-12-01T07:09:37.824Z,6.84
2018-12-01T07:12:15.082Z,6.86
2018-12-01T07:14:47.570Z,6.85
2018-12-01T07:17:20.181Z,6.82
2018-12-01T07:19:51.785Z,6.78
2018-12-01T07:22:25.476Z,6.76
2018-12-01T07:24:57.166Z,6.76
2018-12-01T07:27:29.078Z,6.74
2018-12-01T07:30:00.483Z,6.74
2018-12-01T07:32:32.799Z,6.73
2018-12-01T07:35:05.280Z,6.74
2018-12-01T07:37:37.542Z,6.77
2018-12-01T07:40:13.799Z,6.77
2018-12-01T07:42:45.074Z,6.75
2018-12-01T07:45:17.412Z,6.78
2018-12-01T07:47:49.200Z,6.77
2018-12-01T07:50:24.296Z,6.81
2018-12-01T07:52:57.527Z,6.83
2018-12-01T07:55:29.446Z,6.85
2018-12-01T07:58:00.845Z,6.87
2018-12-01T08:00:33.013Z,6.91
2018-12-01T08:03:06.663Z,6.91
2018-12-01T08:05:38.663Z,6.92
2018-12-01T08:08:10.796Z,6.93
2018-12-01T08:10:43.747Z,6.94
2018-12-01T08:13:15.956Z,6.96
2018-12-01T08:15:47.379Z,6.98
2018-12-01T08:18:19.095Z,7.00
2018-12-01T08:20:52.570Z,6.98
2018-12-01T08:23:24.546Z,7.02
2018-12-01T08:25:56.076Z,7.04
2018-12-01T08:28:28.137Z,7.09
2018-12-01T08:31:01.083Z,7.11
2018-12-01T08:33:34.170Z,7.15
2018-12-01T08:36:07.521Z,7.20
2018-12-01T08:38:41.229Z,7.24
2018-12-01T08:41:31.699Z,7.26
2018-12-01T08:44:04.012Z,7.29
2018-12-01T08:46:35.585Z,7.31
2018-12-01T08:49:07.462Z,7.33
2018-12-01T08:51:41.554Z,7.34
2018-12-01T08:54:13.423Z,7.35
2018-12-01T08:56:45.669Z,7.40
2018-12-01T08:59:17.698Z,7.43
2018-12-01T09:01:49.733Z,7.47
2018-12-01T09:04:22.559Z,7.55
2018-12-01T09:06:54.876Z,7.55
2018-12-01T09:09:28.037Z,7.59
2018-12-01T09:11:59.555Z,7.68
2018-12-01T09:14:31.296Z,7.68
2018-12-01T09:17:03.314Z,7.72
2018-12-01T09:22:27.541Z,7.71
2018-12-01T09:25:04.608Z,7.69
2018-12-01T09:27:46.624Z,7.69
2018-12-01T09:30:40.860Z,7.70
2018-12-01T09:33:13.267Z,7.69
2018-12-01T09:35:44.721Z,7.70
2018-12-01T09:38:16.111Z,7.75
2018-12-01T09:40:48.718Z,7.80
2018-12-01T09:43:20.198Z,7.73
2018-12-01T09:45:51.606Z,7.75
2018-12-01T09:48:23.998Z,7.76
2018-12-01T09:50:56.069Z,7.76
2018-12-01T09:53:28.376Z,7.81
2018-12-01T09:56:00.579Z,7.76
2018-12-01T09:58:32.648Z,7.81
2018-12-01T10:01:04.073Z,7.85
2018-12-01T10:03:35.925Z,7.84
2018-12-01T10:06:07.369Z,7.90
2018-12-01T10:08:39.150Z,7.93
2018-12-01T10:11:12.013Z,7.99
2018-12-01T10:13:48.031Z,8.04
2018-12-01T10:16:19.667Z,8.09
2018-12-01T10:18:56.380Z,8.15
2018-12-01T10:21:23.584Z,8.17
2018-12-01T10:23:55.347Z,8.18
2018-12-01T10:26:28.049Z,8.15
2018-12-01T10:29:00.293Z,8.15
2018-12-01T10:31:32.129Z,8.09
2018-12-01T10:34:03.764Z,8.09
2018-12-01T10:36:35.462Z,8.04
2018-12-01T10:39:10.133Z,8.00
2018-12-01T10:44:25.515Z,8.04
2018-12-01T10:46:57.248Z,8.06
2018-12-01T10:49:28.598Z,8.07
2018-12-01T10:52:00.872Z,8.10
2018-12-01T10:54:33.436Z,8.21
2018-12-01T10:57:05.053Z,8.22
2018-12-01T10:59:36.797Z,8.26
2018-12-01T11:02:42.766Z,8.26
2018-12-01T11:05:14.436Z,8.27
2018-12-01T11:07:46.141Z,8.27
2018-12-01T11:10:18.279Z,8.26
2018-12-01T11:12:50.409Z,8.26
2018-12-01T11:15:22.443Z,8.37
2018-12-01T11:17:53.757Z,8.43
2018-12-01T11:20:25.491Z,8.51
2018-12-01T11:22:58.235Z,8.52
2018-12-01T11:25:30.194Z,8.54
2018-12-01T11:28:02.066Z,8.61
2018-12-01T11:30:33.820Z,8.72
2018-12-01T11:33:05.668Z,8.86
2018-12-01T11:35:37.064Z,8.85
2018-12-01T11:38:09.083Z,8.85
2018-12-01T11:40:41.174Z,8.83
2018-12-01T11:43:14.411Z,8.74
2018-12-01T11:45:46.039Z,8.74
2018-12-01T11:48:18.177Z,8.78
2018-12-01T11:50:49.525Z,8.83
2018-12-01T11:53:21.035Z,8.84
2018-12-01T11:55:53.973Z,8.80
2018-12-01T11:58:25.478Z,8.84
2018-12-01T12:00:56.769Z,8.81
2018-12-01T12:03:28.874Z,8.83
2018-12-01T12:06:00.612Z,8.85
2018-12-01T12:08:32.090Z,8.83
2018-12-01T12:11:03.655Z,8.81
2018-12-01T12:13:35.782Z,8.82
2018-12-01T12:16:07.665Z,8.80
2018-12-01T12:18:39.150Z,8.88
2018-12-01T12:21:11.209Z,8.88
2018-12-01T12:23:44.451Z,8.87
2018-12-01T12:26:16.062Z,8.87
2018-12-01T12:28:48.658Z,8.90
2018-12-01T12:31:24.565Z,8.95
2018-12-01T12:33:57.255Z,8.97
2018-12-01T12:36:31.185Z,8.94
2018-12-01T12:39:03.052Z,8.96
2018-12-01T12:41:35.329Z,8.95
2018-12-01T12:44:08.386Z,8.97
2018-12-01T12:46:40.031Z,9.03
2018-12-01T12:49:11.277Z,9.03
2018-12-01T12:51:43.790Z,9.05
2018-12-01T12:54:33.489Z,9.07
2018-12-01T12:57:05.600Z,9.14
2018-12-01T12:59:37.655Z,9.17
2018-12-01T13:02:09.284Z,9.18
2018-12-01T13:04:40.631Z,9.17
2018-12-01T13:07:11.988Z,9.16
2018-12-01T13:09:43.279Z,9.15
2018-12-01T13:12:15.091Z,9.15
2018-12-01T13:14:46.381Z,9.14
2018-12-01T13:17:18.380Z,9.10
2018-12-01T13:19:50.546Z,9.09
2018-12-01T13:22:22.650Z,9.12
2018-12-01T13:24:54.105Z,9.10
2018-12-01T13:27:25.551Z,9.08
2018-12-01T13:29:58.600Z,9.09
2018-12-01T13:32:31.126Z,9.08
2018-12-01T13:35:02.475Z,9.18
2018-12-01T13:37:34.104Z,9.21
2018-12-01T13:40:08.430Z,9.22
2018-12-01T13:42:39.918Z,9.25
2018-12-01T13:45:18.425Z,9.30
2018-12-01T13:47:51.060Z,9.28
2018-12-01T13:50:23.497Z,9.31
2018-12-01T13:53:02.151Z,9.33
2018-12-01T13:55:34.419Z,9.34
2018-12-01T13:58:06.421Z,9.34
2018-12-01T14:00:37.941Z,9.34
2018-12-01T14:03:10.623Z,9.35
2018-12-01T14:05:43.204Z,9.34
2018-12-01T14:08:14.574Z,9.32
2018-12-01T14:10:52.775Z,9.31
2018-12-01T14:13:24.428Z,9.27
2018-12-01T14:21:38.946Z,9.22
2018-12-01T14:24:10.656Z,9.20
2018-12-01T14:26:42.021Z,9.17
2018-12-01T14:29:13.562Z,9.19
2018-12-01T14:31:46.107Z,9.15
2018-12-01T14:34:18.027Z,9.15
2018-12-01T14:36:49.480Z,9.11
2018-12-01T14:39:21.379Z,9.06
2018-12-01T14:41:53.338Z,9.03
2018-12-01T14:44:24.761Z,8.98
2018-12-01T14:46:56.107Z,8.90
2018-12-01T14:49:30.713Z,8.88
2018-12-01T14:52:05.052Z,8.86
2018-12-01T14:54:37.761Z,8.85
2018-12-01T14:57:09.343Z,8.79
2018-12-01T14:59:40.597Z,8.75
2018-12-01T15:02:12.022Z,8.74
2018-12-01T15:04:44.233Z,8.67
2018-12-01T15:07:16.889Z,8.57
2018-12-01T15:09:48.674Z,8.52
2018-12-01T15:12:20.107Z,8.46
2018-12-01T15:14:52.468Z,8.52
2018-12-01T15:17:24.137Z,8.57
2018-12-01T15:19:55.556Z,8.62
2018-12-01T15:22:38.081Z,8.59
2018-12-01T15:25:22.639Z,8.60
2018-12-01T15:27:54.123Z,8.51
2018-12-01T15:30:29.190Z,8.46
2018-12-01T15:33:20.223Z,8.43
2018-12-01T15:35:51.588Z,8.42
2018-12-01T15:38:23.543Z,8.32
2018-12-01T15:40:55.165Z,8.32
2018-12-01T15:43:28.500Z,8.31
2018-12-01T15:46:00.019Z,8.24
2018-12-01T15:48:31.703Z,8.26
2018-12-01T15:51:03.441Z,8.20
2018-12-01T15:53:35.300Z,8.11
2018-12-01T15:56:06.664Z,8.04
2018-12-01T15:58:38.246Z,7.98
2018-12-01T16:01:10.117Z,7.89
2018-12-01T16:03:41.615Z,7.82
2018-12-01T16:06:12.957Z,7.72
2018-12-01T16:08:44.327Z,7.63
2018-12-01T16:11:15.794Z,7.55
2018-12-01T16:13:47.555Z,7.49
2018-12-01T16:16:21.809Z,7.45
2018-12-01T16:18:54.365Z,7.43
2018-12-01T16:21:25.937Z,7.43
2018-12-01T16:23:57.429Z,7.53
2018-12-01T16:26:29.621Z,7.49
2018-12-01T16:29:01.069Z,7.45
2018-12-01T16:31:33.030Z,7.41
2018-12-01T16:34:04.327Z,7.39
2018-12-01T16:36:35.852Z,7.33
2018-12-01T16:39:10.379Z,7.30
2018-12-01T16:41:41.813Z,7.28
2018-12-01T16:44:14.188Z,7.29
2018-12-01T16:46:46.954Z,7.29
2018-12-01T16:49:18.579Z,7.26
2018-12-01T16:51:49.988Z,7.22
2018-12-01T16:54:21.763Z,7.18
2018-12-01T16:56:53.910Z,7.06
2018-12-01T16:59:26.129Z,7.01
2018-12-01T17:01:57.773Z,7.05
2018-12-01T17:04:30.824Z,7.06
2018-12-01T17:07:02.445Z,7.07
2018-12-01T17:09:34.138Z,7.09
2018-12-01T17:12:06.544Z,7.10
2018-12-01T17:14:38.206Z,7.07
2018-12-01T17:17:09.896Z,7.06
2018-12-01T17:19:42.209Z,7.10
2018-12-01T17:22:13.982Z,7.18
2018-12-01T17:24:45.617Z,7.19
2018-12-01T17:27:17.338Z,7.22
2018-12-01T17:29:49.025Z,7.16
2018-12-01T17:32:20.910Z,7.17
2018-12-01T17:34:52.675Z,7.21
2018-12-01T17:37:25.518Z,7.22
2018-12-01T17:39:59.682Z,7.25
2018-12-01T17:42:30.179Z,7.31
2018-12-01T17:45:01.857Z,7.31
2018-12-01T17:47:34.119Z,7.31
2018-12-01T17:50:08.939Z,7.33
2018-12-01T17:52:40.909Z,7.37
2018-12-01T17:55:13.688Z,7.39
2018-12-01T17:57:46.728Z,7.41
2018-12-01T18:00:26.258Z,7.38
2018-12-01T18:02:58.854Z,7.46
2018-12-01T18:05:37.887Z,7.53
2018-12-01T18:08:14.034Z,7.47
2018-12-01T18:10:46.526Z,7.49
2018-12-01T18:13:19.087Z,7.44
2018-12-01T18:15:50.422Z,7.44
2018-12-01T18:18:22.549Z,7.48
2018-12-01T18:20:53.994Z,7.52
2018-12-01T18:23:25.394Z,7.53
2018-12-01T18:25:57.121Z,7.55
2018-12-01T18:28:33.855Z,7.54
2018-12-01T18:31:08.168Z,7.52
2018-12-01T18:33:44.318Z,7.54
2018-12-01T18:36:16.878Z,7.57
2018-12-01T18:38:50.613Z,7.56
2018-12-01T18:41:23.071Z,7.56
2018-12-01T18:43:55.596Z,7.53
2018-12-01T18:46:27.037Z,7.59
2018-12-01T18:48:58.374Z,7.58
2018-12-01T18:51:31.274Z,7.61
2018-12-01T18:54:02.845Z,7.58
2018-12-01T18:56:34.957Z,7.58
2018-12-01T18:59:06.585Z,7.55
2018-12-01T19:01:37.948Z,7.52
2018-12-01T19:04:09.244Z,7.54
2018-12-01T19:06:40.604Z,7.58
2018-12-01T19:09:12.722Z,7.56
2018-12-01T19:11:44.391Z,7.62
2018-12-01T19:14:15.709Z,7.60
2018-12-01T19:16:47.989Z,7.57
2018-12-01T19:19:19.289Z,7.58
2018-12-01T19:21:50.744Z,7.64
2018-12-01T19:24:22.841Z,7.66
2018-12-01T19:26:54.576Z,7.65
2018-12-01T19:29:25.867Z,7.63
2018-12-01T19:31:57.219Z,7.64
2018-12-01T19:34:28.677Z,7.66
2018-12-01T19:37:00.027Z,7.66
2018-12-01T19:39:32.781Z,7.66
2018-12-01T19:42:05.420Z,7.66
2018-12-01T19:44:37.039Z,7.68
2018-12-01T19:47:08.707Z,7.67
2018-12-01T19:49:40.676Z,7.72
2018-12-01T19:52:12.932Z,7.71
2018-12-01T19:54:44.266Z,7.68
2018-12-01T19:57:15.954Z,7.70
2018-12-01T19:59:47.946Z,7.69
2018-12-01T20:02:20.048Z,7.71
2018-12-01T20:04:52.153Z,7.69
2018-12-01T20:07:23.812Z,7.71
2018-12-01T20:09:55.662Z,7.70
2018-12-01T20:12:27.233Z,7.68
2018-12-01T20:14:58.823Z,7.71
2018-12-01T20:17:30.551Z,7.65
2018-12-01T20:20:02.206Z,7.61
2018-12-01T20:22:33.632Z,7.63
2018-12-01T20:25:05.078Z,7.66
2018-12-01T20:27:36.593Z,7.64
2018-12-01T20:30:20.711Z,7.62
2018-12-01T20:32:52.430Z,7.59
2018-12-01T20:35:28.808Z,7.57
2018-12-01T20:38:06.019Z,7.54
2018-12-01T20:40:38.120Z,7.54
2018-12-01T20:43:11.023Z,7.54
2018-12-01T20:45:43.487Z,7.51
2018-12-01T20:48:14.968Z,7.50
2018-12-01T20:50:46.386Z,7.48
2018-12-01T20:53:18.551Z,7.43
2018-12-01T20:55:58.614Z,7.42
2018-12-01T20:58:33.649Z,7.42
2018-12-01T21:01:04.969Z,7.44
2018-12-01T21:03:36.994Z,7.47
2018-12-01T21:06:11.668Z,7.45
2018-12-01T21:08:46.188Z,7.47
2018-12-01T21:11:19.544Z,7.49
2018-12-01T21:13:50.921Z,7.43
2018-12-01T21:16:23.046Z,7.45
2018-12-01T21:18:54.492Z,7.48
2018-12-01T21:21:26.260Z,7.47
2018-12-01T21:23:57.938Z,7.41
2018-12-01T21:26:29.609Z,7.44
2018-12-01T21:29:01.214Z,7.44
2018-12-01T21:31:33.263Z,7.43
2018-12-01T21:34:04.962Z,7.45
2018-12-01T21:36:36.441Z,7.47
2018-12-01T21:39:09.667Z,7.50
2018-12-01T21:41:41.306Z,7.49
2018-12-01T21:44:13.153Z,7.43
2018-12-01T21:46:44.541Z,7.44
2018-12-01T21:49:16.526Z,7.46
2018-12-01T21:51:48.474Z,7.43
2018-12-01T21:54:23.283Z,7.42
2018-12-01T21:56:55.875Z,7.43
2018-12-01T21:59:27.558Z,7.43
2018-12-01T22:01:58.882Z,7.49
2018-12-01T22:04:30.870Z,7.48
2018-12-01T22:07:02.275Z,7.51
2018-12-01T22:09:35.494Z,7.52
2018-12-01T22:12:07.036Z,7.51
2018-12-01T22:14:38.952Z,7.53
2018-12-01T22:17:10.356Z,7.53
2018-12-01T22:19:42.703Z,7.54
2018-12-01T22:22:15.466Z,7.61
2018-12-01T22:24:47.355Z,7.61
2018-12-01T22:27:19.056Z,7.61
2018-12-01T22:29:50.749Z,7.61
2018-12-01T22:32:23.072Z,7.62
2018-12-01T22:34:54.395Z,7.59
2018-12-01T22:37:25.753Z,7.59
2018-12-01T22:39:57.036Z,7.59
2018-12-01T22:42:28.819Z,7.59
2018-12-01T22:45:00.927Z,7.61
2018-12-01T22:47:32.315Z,7.59
2018-12-01T22:50:04.093Z,7.60
2018-12-01T22:52:35.413Z,7.68
2018-12-01T22:55:08.885Z,7.65
2018-12-01T22:57:40.657Z,7.67
2018-12-01T23:00:40.892Z,7.69
2018-12-01T23:03:13.347Z,7.67
2018-12-01T23:05:44.836Z,7.66
2018-12-01T23:08:17.559Z,7.66
2018-12-01T23:10:49.552Z,7.64
2018-12-01T23:13:21.131Z,7.67
2018-12-01T23:15:52.603Z,7.70
2018-12-01T23:18:27.558Z,7.68
2018-12-01T23:20:58.819Z,7.70
2018-12-01T23:23:30.579Z,7.68
2018-12-01T23:26:02.210Z,7.72
2018-12-01T23:28:34.147Z,7.73
2018-12-01T23:31:05.918Z,7.76
2018-12-01T23:33:37.225Z,7.76
2018-12-01T23:36:08.568Z,7.74
2018-12-01T23:38:39.887Z,7.80
2018-12-01T23:41:12.338Z,7.80
2018-12-01T23:43:45.341Z,7.85
2018-12-01T23:46:16.725Z,7.85
2018-12-01T23:48:48.560Z,7.83
2018-12-01T23:51:20.575Z,7.86
2018-12-01T23:53:52.478Z,7.96
2018-12-01T23:56:23.802Z,7.91
2018-12-01T23:58:56.219Z,7.88
